sensor_id;sensor_type;location;lat;lon;timestamp;temperature;humidity
12130;DHT22;6128;59.340;18.040;2023-07-13T00:01:51;16.70;99.90
12130;DHT22;6128;59.340;18.040;2023-07-13T00:04:20;16.60;99.90
12130;DHT22;6128;59.340;18.040;2023-07-13T00:06:48;16.60;99.90
12130;DHT22;6128;59.340;18.040;2023-07-13T00:09:18;16.60;99.90
12130;DHT22;6128;59.340;18.040;2023-07-13T00:11:50;16.60;99.90
12130;DHT22;6128;59.340;18.040;2023-07-13T00:14:18;16.50;99.90
12130;DHT22;6128;59.340;18.040;2023-07-13T00:16:45;16.50;99.90
12130;DHT22;6128;59.340;18.040;2023-07-13T00:19:13;16.50;99.90
12130;DHT22;6128;59.340;18.040;2023-07-13T00:21:41;16.40;99.90
12130;DHT22;6128;59.340;18.040;2023-07-13T00:24:11;16.50;99.90
12130;DHT22;6128;59.340;18.040;2023-07-13T00:26:41;16.40;99.90
12130;DHT22;6128;59.340;18.040;2023-07-13T00:29:11;16.40;99.90
12130;DHT22;6128;59.340;18.040;2023-07-13T00:31:38;16.30;99.90
12130;DHT22;6128;59.340;18.040;2023-07-13T00:34:05;16.30;99.90
12130;DHT22;6128;59.340;18.040;2023-07-13T00:36:33;16.30;99.90
12130;DHT22;6128;59.340;18.040;2023-07-13T00:39:00;16.30;99.90
12130;DHT22;6128;59.340;18.040;2023-07-13T00:41:27;16.20;99.90
12130;DHT22;6128;59.340;18.040;2023-07-13T00:43:55;16.20;99.90
12130;DHT22;6128;59.340;18.040;2023-07-13T00:46:25;16.20;99.90
12130;DHT22;6128;59.340;18.040;2023-07-13T00:48:54;16.10;99.90
12130;DHT22;6128;59.340;18.040;2023-07-13T00:51:28;16.10;99.90
12130;DHT22;6128;59.340;18.040;2023-07-13T00:54:00;16.10;99.90
12130;DHT22;6128;59.340;18.040;2023-07-13T00:56:30;16.10;99.90
12130;DHT22;6128;59.340;18.040;2023-07-13T00:58:59;16.10;99.90
12130;DHT22;6128;59.340;18.040;2023-07-13T01:01:27;16.10;99.90
12130;DHT22;6128;59.340;18.040;2023-07-13T01:03:54;16.10;99.90
12130;DHT22;6128;59.340;18.040;2023-07-13T01:06:23;16.00;99.90
12130;DHT22;6128;59.340;18.040;2023-07-13T01:08:50;16.00;99.90
12130;DHT22;6128;59.340;18.040;2023-07-13T01:11:19;16.00;99.90
12130;DHT22;6128;59.340;18.040;2023-07-13T01:13:47;16.00;99.90
12130;DHT22;6128;59.340;18.040;2023-07-13T01:16:21;16.00;99.90
12130;DHT22;6128;59.340;18.040;2023-07-13T01:18:49;16.00;99.90
12130;DHT22;6128;59.340;18.040;2023-07-13T01:21:17;16.10;99.90
12130;DHT22;6128;59.340;18.040;2023-07-13T01:23:45;16.10;99.90
12130;DHT22;6128;59.340;18.040;2023-07-13T01:26:12;16.20;99.90
12130;DHT22;6128;59.340;18.040;2023-07-13T01:28:39;16.20;99.90
12130;DHT22;6128;59.340;18.040;2023-07-13T01:31:06;16.30;99.90
12130;DHT22;6128;59.340;18.040;2023-07-13T01:33:36;16.20;99.90
12130;DHT22;6128;59.340;18.040;2023-07-13T01:36:03;16.20;99.90
12130;DHT22;6128;59.340;18.040;2023-07-13T01:38:33;16.20;99.90
12130;DHT22;6128;59.340;18.040;2023-07-13T01:41:00;16.20;99.90
12130;DHT22;6128;59.340;18.040;2023-07-13T01:43:28;16.20;99.90
12130;DHT22;6128;59.340;18.040;2023-07-13T01:45:55;16.30;99.90
12130;DHT22;6128;59.340;18.040;2023-07-13T01:48:22;16.30;99.90
12130;DHT22;6128;59.340;18.040;2023-07-13T01:50:49;16.30;99.90
12130;DHT22;6128;59.340;18.040;2023-07-13T01:53:16;16.30;99.90
12130;DHT22;6128;59.340;18.040;2023-07-13T01:55:45;16.30;99.90
12130;DHT22;6128;59.340;18.040;2023-07-13T01:58:12;16.30;99.90
12130;DHT22;6128;59.340;18.040;2023-07-13T02:00:39;16.30;99.90
12130;DHT22;6128;59.340;18.040;2023-07-13T02:03:06;16.30;99.90
12130;DHT22;6128;59.340;18.040;2023-07-13T02:05:33;16.30;99.90
12130;DHT22;6128;59.340;18.040;2023-07-13T02:08:00;16.30;99.90
12130;DHT22;6128;59.340;18.040;2023-07-13T02:10:27;16.30;99.90
12130;DHT22;6128;59.340;18.040;2023-07-13T02:12:56;16.20;99.90
12130;DHT22;6128;59.340;18.040;2023-07-13T02:15:23;16.20;99.90
12130;DHT22;6128;59.340;18.040;2023-07-13T02:17:50;16.30;99.90
12130;DHT22;6128;59.340;18.040;2023-07-13T02:20:17;16.20;99.90
12130;DHT22;6128;59.340;18.040;2023-07-13T02:22:44;16.20;99.90
12130;DHT22;6128;59.340;18.040;2023-07-13T02:25:12;16.10;99.90
12130;DHT22;6128;59.340;18.040;2023-07-13T02:27:39;16.10;99.90
12130;DHT22;6128;59.340;18.040;2023-07-13T02:30:09;16.10;99.90
12130;DHT22;6128;59.340;18.040;2023-07-13T02:32:37;16.10;99.90
12130;DHT22;6128;59.340;18.040;2023-07-13T02:35:05;16.10;99.90
12130;DHT22;6128;59.340;18.040;2023-07-13T02:37:32;16.10;99.90
12130;DHT22;6128;59.340;18.040;2023-07-13T02:39:59;16.00;99.90
12130;DHT22;6128;59.340;18.040;2023-07-13T02:42:26;16.00;99.90
12130;DHT22;6128;59.340;18.040;2023-07-13T02:44:53;16.10;99.90
12130;DHT22;6128;59.340;18.040;2023-07-13T02:47:22;16.00;99.90
12130;DHT22;6128;59.340;18.040;2023-07-13T02:49:49;16.10;99.90
12130;DHT22;6128;59.340;18.040;2023-07-13T02:52:16;16.10;99.90
12130;DHT22;6128;59.340;18.040;2023-07-13T02:54:43;16.10;99.90
12130;DHT22;6128;59.340;18.040;2023-07-13T02:57:10;16.10;99.90
12130;DHT22;6128;59.340;18.040;2023-07-13T02:59:37;16.10;99.90
12130;DHT22;6128;59.340;18.040;2023-07-13T03:02:05;16.10;99.90
12130;DHT22;6128;59.340;18.040;2023-07-13T03:04:35;16.20;99.90
12130;DHT22;6128;59.340;18.040;2023-07-13T03:07:03;16.20;99.90
12130;DHT22;6128;59.340;18.040;2023-07-13T03:09:31;16.30;99.90
12130;DHT22;6128;59.340;18.040;2023-07-13T03:11:58;16.30;99.90
12130;DHT22;6128;59.340;18.040;2023-07-13T03:14:25;16.30;99.90
12130;DHT22;6128;59.340;18.040;2023-07-13T03:16:52;16.40;99.90
12130;DHT22;6128;59.340;18.040;2023-07-13T03:19:20;16.40;99.90
12130;DHT22;6128;59.340;18.040;2023-07-13T03:21:49;16.40;99.90
12130;DHT22;6128;59.340;18.040;2023-07-13T03:24:16;16.40;99.90
12130;DHT22;6128;59.340;18.040;2023-07-13T03:26:43;16.40;99.90
12130;DHT22;6128;59.340;18.040;2023-07-13T03:29:10;16.40;99.90
12130;DHT22;6128;59.340;18.040;2023-07-13T03:31:37;16.40;99.90
12130;DHT22;6128;59.340;18.040;2023-07-13T03:34:05;16.50;99.90
12130;DHT22;6128;59.340;18.040;2023-07-13T03:36:32;16.50;99.90
12130;DHT22;6128;59.340;18.040;2023-07-13T03:39:02;16.50;99.90
12130;DHT22;6128;59.340;18.040;2023-07-13T03:41:29;16.60;99.90
12130;DHT22;6128;59.340;18.040;2023-07-13T03:43:57;16.60;99.90
12130;DHT22;6128;59.340;18.040;2023-07-13T03:46:24;16.70;99.90
12130;DHT22;6128;59.340;18.040;2023-07-13T03:48:52;16.70;99.90
12130;DHT22;6128;59.340;18.040;2023-07-13T03:51:19;16.70;99.90
12130;DHT22;6128;59.340;18.040;2023-07-13T03:53:47;16.80;99.90
12130;DHT22;6128;59.340;18.040;2023-07-13T03:56:18;16.80;99.90
12130;DHT22;6128;59.340;18.040;2023-07-13T03:58:47;16.70;99.90
12130;DHT22;6128;59.340;18.040;2023-07-13T04:01:15;16.70;99.90
12130;DHT22;6128;59.340;18.040;2023-07-13T04:03:42;16.70;99.90
12130;DHT22;6128;59.340;18.040;2023-07-13T04:06:14;16.70;99.90
12130;DHT22;6128;59.340;18.040;2023-07-13T04:08:47;16.70;99.90
12130;DHT22;6128;59.340;18.040;2023-07-13T04:11:17;16.70;99.90
12130;DHT22;6128;59.340;18.040;2023-07-13T04:13:44;16.80;99.90
12130;DHT22;6128;59.340;18.040;2023-07-13T04:16:11;16.80;99.90
12130;DHT22;6128;59.340;18.040;2023-07-13T04:18:38;16.70;99.90
12130;DHT22;6128;59.340;18.040;2023-07-13T04:21:07;16.70;99.90
12130;DHT22;6128;59.340;18.040;2023-07-13T04:23:34;16.70;99.90
12130;DHT22;6128;59.340;18.040;2023-07-13T04:26:02;16.80;99.90
12130;DHT22;6128;59.340;18.040;2023-07-13T04:28:33;16.80;99.90
12130;DHT22;6128;59.340;18.040;2023-07-13T04:31:00;17.00;99.90
12130;DHT22;6128;59.340;18.040;2023-07-13T04:33:27;17.10;99.90
12130;DHT22;6128;59.340;18.040;2023-07-13T04:35:55;17.20;99.90
12130;DHT22;6128;59.340;18.040;2023-07-13T04:38:24;17.30;99.90
12130;DHT22;6128;59.340;18.040;2023-07-13T04:40:51;17.40;99.90
12130;DHT22;6128;59.340;18.040;2023-07-13T04:43:19;17.40;99.90
12130;DHT22;6128;59.340;18.040;2023-07-13T04:45:47;17.50;99.90
12130;DHT22;6128;59.340;18.040;2023-07-13T04:48:14;17.50;99.90
12130;DHT22;6128;59.340;18.040;2023-07-13T04:50:41;17.50;99.90
12130;DHT22;6128;59.340;18.040;2023-07-13T04:53:09;17.60;99.90
12130;DHT22;6128;59.340;18.040;2023-07-13T04:55:37;17.50;99.90
12130;DHT22;6128;59.340;18.040;2023-07-13T04:58:04;17.60;99.90
12130;DHT22;6128;59.340;18.040;2023-07-13T05:00:31;17.80;99.90
12130;DHT22;6128;59.340;18.040;2023-07-13T05:03:00;17.90;99.90
12130;DHT22;6128;59.340;18.040;2023-07-13T05:05:27;17.90;99.90
12130;DHT22;6128;59.340;18.040;2023-07-13T05:07:54;18.00;99.90
12130;DHT22;6128;59.340;18.040;2023-07-13T05:10:21;18.20;99.90
12130;DHT22;6128;59.340;18.040;2023-07-13T05:12:49;18.30;99.90
12130;DHT22;6128;59.340;18.040;2023-07-13T05:15:16;18.30;99.90
12130;DHT22;6128;59.340;18.040;2023-07-13T05:17:46;18.30;99.90
12130;DHT22;6128;59.340;18.040;2023-07-13T05:20:16;18.30;99.90
12130;DHT22;6128;59.340;18.040;2023-07-13T05:22:43;18.30;99.90
12130;DHT22;6128;59.340;18.040;2023-07-13T05:25:12;18.30;99.90
12130;DHT22;6128;59.340;18.040;2023-07-13T05:27:39;18.30;99.90
12130;DHT22;6128;59.340;18.040;2023-07-13T05:30:07;18.40;99.90
12130;DHT22;6128;59.340;18.040;2023-07-13T05:32:36;18.40;99.90
12130;DHT22;6128;59.340;18.040;2023-07-13T05:35:04;18.50;99.90
12130;DHT22;6128;59.340;18.040;2023-07-13T05:37:33;18.50;99.90
12130;DHT22;6128;59.340;18.040;2023-07-13T05:40:00;18.40;99.90
12130;DHT22;6128;59.340;18.040;2023-07-13T05:42:27;18.50;99.90
12130;DHT22;6128;59.340;18.040;2023-07-13T05:44:56;18.60;99.90
12130;DHT22;6128;59.340;18.040;2023-07-13T05:47:23;18.50;99.90
12130;DHT22;6128;59.340;18.040;2023-07-13T05:49:51;18.40;99.90
12130;DHT22;6128;59.340;18.040;2023-07-13T05:52:18;18.40;99.90
12130;DHT22;6128;59.340;18.040;2023-07-13T05:54:46;18.40;99.90
12130;DHT22;6128;59.340;18.040;2023-07-13T05:57:13;18.80;99.90
12130;DHT22;6128;59.340;18.040;2023-07-13T05:59:41;19.20;99.90
12130;DHT22;6128;59.340;18.040;2023-07-13T06:02:09;19.70;99.90
12130;DHT22;6128;59.340;18.040;2023-07-13T06:04:36;20.70;99.90
12130;DHT22;6128;59.340;18.040;2023-07-13T06:07:04;21.60;99.90
12130;DHT22;6128;59.340;18.040;2023-07-13T06:09:31;22.30;99.90
12130;DHT22;6128;59.340;18.040;2023-07-13T06:12:00;22.90;99.90
12130;DHT22;6128;59.340;18.040;2023-07-13T06:14:27;23.30;99.90
12130;DHT22;6128;59.340;18.040;2023-07-13T06:16:54;23.90;99.90
12130;DHT22;6128;59.340;18.040;2023-07-13T06:19:21;24.20;99.90
12130;DHT22;6128;59.340;18.040;2023-07-13T06:21:49;24.60;99.90
12130;DHT22;6128;59.340;18.040;2023-07-13T06:24:16;24.70;99.90
12130;DHT22;6128;59.340;18.040;2023-07-13T06:26:43;25.10;99.90
12130;DHT22;6128;59.340;18.040;2023-07-13T06:29:11;25.50;99.90
12130;DHT22;6128;59.340;18.040;2023-07-13T06:31:39;25.60;99.90
12130;DHT22;6128;59.340;18.040;2023-07-13T06:34:06;25.90;99.90
12130;DHT22;6128;59.340;18.040;2023-07-13T06:36:33;26.20;99.90
12130;DHT22;6128;59.340;18.040;2023-07-13T06:39:01;25.80;99.90
12130;DHT22;6128;59.340;18.040;2023-07-13T06:41:29;25.50;99.90
12130;DHT22;6128;59.340;18.040;2023-07-13T06:43:56;25.50;99.90
12130;DHT22;6128;59.340;18.040;2023-07-13T06:46:25;25.90;99.90
12130;DHT22;6128;59.340;18.040;2023-07-13T06:48:52;26.10;99.90
12130;DHT22;6128;59.340;18.040;2023-07-13T06:51:19;26.50;99.90
12130;DHT22;6128;59.340;18.040;2023-07-13T06:53:46;26.80;99.90
12130;DHT22;6128;59.340;18.040;2023-07-13T06:56:13;27.20;99.90
12130;DHT22;6128;59.340;18.040;2023-07-13T06:58:40;27.20;99.90
12130;DHT22;6128;59.340;18.040;2023-07-13T07:01:09;26.70;99.90
12130;DHT22;6128;59.340;18.040;2023-07-13T07:03:37;26.60;99.90
12130;DHT22;6128;59.340;18.040;2023-07-13T07:06:13;27.00;99.90
12130;DHT22;6128;59.340;18.040;2023-07-13T07:08:41;27.40;99.90
12130;DHT22;6128;59.340;18.040;2023-07-13T07:11:10;28.20;99.90
12130;DHT22;6128;59.340;18.040;2023-07-13T07:13:38;28.60;99.90
12130;DHT22;6128;59.340;18.040;2023-07-13T07:16:05;28.70;99.90
12130;DHT22;6128;59.340;18.040;2023-07-13T07:18:34;28.90;99.90
12130;DHT22;6128;59.340;18.040;2023-07-13T07:21:04;29.00;99.90
12130;DHT22;6128;59.340;18.040;2023-07-13T07:23:31;28.60;99.90
12130;DHT22;6128;59.340;18.040;2023-07-13T07:25:58;27.90;99.90
12130;DHT22;6128;59.340;18.040;2023-07-13T07:28:26;26.80;99.90
12130;DHT22;6128;59.340;18.040;2023-07-13T07:30:55;26.80;99.90
12130;DHT22;6128;59.340;18.040;2023-07-13T07:33:22;27.00;99.90
12130;DHT22;6128;59.340;18.040;2023-07-13T07:35:50;27.40;99.90
12130;DHT22;6128;59.340;18.040;2023-07-13T07:38:19;28.30;99.90
12130;DHT22;6128;59.340;18.040;2023-07-13T07:40:47;28.60;99.90
12130;DHT22;6128;59.340;18.040;2023-07-13T07:43:14;28.70;99.90
12130;DHT22;6128;59.340;18.040;2023-07-13T07:45:41;27.80;99.90
12130;DHT22;6128;59.340;18.040;2023-07-13T07:48:08;27.80;99.90
12130;DHT22;6128;59.340;18.040;2023-07-13T07:50:35;27.60;99.90
12130;DHT22;6128;59.340;18.040;2023-07-13T07:53:05;27.70;99.80
12130;DHT22;6128;59.340;18.040;2023-07-13T07:55:34;27.90;99.70
12130;DHT22;6128;59.340;18.040;2023-07-13T07:58:02;28.30;99.60
12130;DHT22;6128;59.340;18.040;2023-07-13T08:00:29;28.30;99.40
12130;DHT22;6128;59.340;18.040;2023-07-13T08:02:57;28.10;99.10
12130;DHT22;6128;59.340;18.040;2023-07-13T08:05:25;28.30;98.80
12130;DHT22;6128;59.340;18.040;2023-07-13T08:07:52;28.30;98.50
12130;DHT22;6128;59.340;18.040;2023-07-13T08:10:19;28.00;98.20
12130;DHT22;6128;59.340;18.040;2023-07-13T08:12:48;28.00;98.00
12130;DHT22;6128;59.340;18.040;2023-07-13T08:15:16;27.80;97.70
12130;DHT22;6128;59.340;18.040;2023-07-13T08:17:43;27.50;97.60
12130;DHT22;6128;59.340;18.040;2023-07-13T08:20:11;27.20;97.60
12130;DHT22;6128;59.340;18.040;2023-07-13T08:22:38;27.40;97.50
12130;DHT22;6128;59.340;18.040;2023-07-13T08:25:05;27.30;97.40
12130;DHT22;6128;59.340;18.040;2023-07-13T08:27:33;27.10;97.50
12130;DHT22;6128;59.340;18.040;2023-07-13T08:30:02;26.70;97.50
12130;DHT22;6128;59.340;18.040;2023-07-13T08:32:31;26.50;97.40
12130;DHT22;6128;59.340;18.040;2023-07-13T08:34:58;26.60;97.30
12130;DHT22;6128;59.340;18.040;2023-07-13T08:37:25;26.50;97.30
12130;DHT22;6128;59.340;18.040;2023-07-13T08:39:53;27.10;97.30
12130;DHT22;6128;59.340;18.040;2023-07-13T08:42:31;27.50;97.40
12130;DHT22;6128;59.340;18.040;2023-07-13T08:45:08;27.70;97.30
12130;DHT22;6128;59.340;18.040;2023-07-13T08:47:42;27.90;97.30
12130;DHT22;6128;59.340;18.040;2023-07-13T08:50:13;27.90;97.70
12130;DHT22;6128;59.340;18.040;2023-07-13T08:52:42;28.50;97.90
12130;DHT22;6128;59.340;18.040;2023-07-13T08:55:13;28.80;98.10
12130;DHT22;6128;59.340;18.040;2023-07-13T08:57:44;28.80;98.20
12130;DHT22;6128;59.340;18.040;2023-07-13T09:00:14;28.50;98.30
12130;DHT22;6128;59.340;18.040;2023-07-13T09:02:45;28.90;98.30
12130;DHT22;6128;59.340;18.040;2023-07-13T09:05:15;29.60;97.80
12130;DHT22;6128;59.340;18.040;2023-07-13T09:08:04;29.50;96.70
12130;DHT22;6128;59.340;18.040;2023-07-13T09:10:41;29.40;92.80
12130;DHT22;6128;59.340;18.040;2023-07-13T09:13:22;29.40;92.60
12130;DHT22;6128;59.340;18.040;2023-07-13T09:15:52;30.10;92.30
12130;DHT22;6128;59.340;18.040;2023-07-13T09:18:25;30.10;92.00
12130;DHT22;6128;59.340;18.040;2023-07-13T09:20:55;30.50;92.10
12130;DHT22;6128;59.340;18.040;2023-07-13T09:23:26;30.20;92.20
12130;DHT22;6128;59.340;18.040;2023-07-13T09:26:01;30.00;92.40
12130;DHT22;6128;59.340;18.040;2023-07-13T09:28:35;29.50;92.40
12130;DHT22;6128;59.340;18.040;2023-07-13T09:31:07;28.70;92.00
12130;DHT22;6128;59.340;18.040;2023-07-13T09:33:38;28.30;92.00
12130;DHT22;6128;59.340;18.040;2023-07-13T09:36:20;27.50;91.70
12130;DHT22;6128;59.340;18.040;2023-07-13T09:38:52;26.60;91.30
12130;DHT22;6128;59.340;18.040;2023-07-13T09:41:28;26.10;91.10
12130;DHT22;6128;59.340;18.040;2023-07-13T09:44:10;25.70;91.20
12130;DHT22;6128;59.340;18.040;2023-07-13T09:46:44;25.20;91.20
12130;DHT22;6128;59.340;18.040;2023-07-13T09:49:12;24.90;91.20
12130;DHT22;6128;59.340;18.040;2023-07-13T09:51:41;24.80;91.30
12130;DHT22;6128;59.340;18.040;2023-07-13T09:54:19;24.60;91.50
12130;DHT22;6128;59.340;18.040;2023-07-13T09:56:46;24.40;91.60
12130;DHT22;6128;59.340;18.040;2023-07-13T09:59:20;24.20;91.70
12130;DHT22;6128;59.340;18.040;2023-07-13T10:01:50;24.00;91.90
12130;DHT22;6128;59.340;18.040;2023-07-13T10:04:18;23.80;92.00
12130;DHT22;6128;59.340;18.040;2023-07-13T10:06:46;23.80;92.10
12130;DHT22;6128;59.340;18.040;2023-07-13T10:09:16;23.80;92.20
12130;DHT22;6128;59.340;18.040;2023-07-13T10:11:44;23.70;92.30
12130;DHT22;6128;59.340;18.040;2023-07-13T10:14:14;23.70;92.40
12130;DHT22;6128;59.340;18.040;2023-07-13T10:16:43;23.70;92.40
12130;DHT22;6128;59.340;18.040;2023-07-13T10:19:17;23.90;92.50
12130;DHT22;6128;59.340;18.040;2023-07-13T10:21:50;24.10;92.50
12130;DHT22;6128;59.340;18.040;2023-07-13T10:24:22;24.20;92.50
12130;DHT22;6128;59.340;18.040;2023-07-13T10:26:55;24.30;92.50
12130;DHT22;6128;59.340;18.040;2023-07-13T10:29:26;24.30;92.40
12130;DHT22;6128;59.340;18.040;2023-07-13T10:31:54;24.30;92.40
12130;DHT22;6128;59.340;18.040;2023-07-13T10:34:24;24.30;92.30
12130;DHT22;6128;59.340;18.040;2023-07-13T10:36:51;24.20;92.20
12130;DHT22;6128;59.340;18.040;2023-07-13T10:39:21;24.40;92.20
12130;DHT22;6128;59.340;18.040;2023-07-13T10:41:52;24.60;92.20
12130;DHT22;6128;59.340;18.040;2023-07-13T10:44:24;24.60;92.20
12130;DHT22;6128;59.340;18.040;2023-07-13T10:46:59;24.60;92.10
12130;DHT22;6128;59.340;18.040;2023-07-13T10:49:30;24.60;92.00
12130;DHT22;6128;59.340;18.040;2023-07-13T10:51:58;24.40;92.00
12130;DHT22;6128;59.340;18.040;2023-07-13T10:54:28;24.40;91.90
12130;DHT22;6128;59.340;18.040;2023-07-13T10:57:16;24.20;91.90
12130;DHT22;6128;59.340;18.040;2023-07-13T10:59:46;24.10;91.80
12130;DHT22;6128;59.340;18.040;2023-07-13T11:02:25;24.00;91.80
12130;DHT22;6128;59.340;18.040;2023-07-13T11:04:55;24.00;91.80
12130;DHT22;6128;59.340;18.040;2023-07-13T11:07:26;24.00;91.80
12130;DHT22;6128;59.340;18.040;2023-07-13T11:09:55;24.00;91.80
12130;DHT22;6128;59.340;18.040;2023-07-13T11:12:29;24.10;91.90
12130;DHT22;6128;59.340;18.040;2023-07-13T11:15:28;24.10;92.00
12130;DHT22;6128;59.340;18.040;2023-07-13T11:17:56;23.80;91.90
12130;DHT22;6128;59.340;18.040;2023-07-13T11:20:36;23.80;91.90
12130;DHT22;6128;59.340;18.040;2023-07-13T11:23:21;23.70;91.80
12130;DHT22;6128;59.340;18.040;2023-07-13T11:25:53;23.70;91.70
12130;DHT22;6128;59.340;18.040;2023-07-13T11:28:29;23.80;91.70
12130;DHT22;6128;59.340;18.040;2023-07-13T11:31:14;23.80;91.60
12130;DHT22;6128;59.340;18.040;2023-07-13T11:34:06;23.90;91.60
12130;DHT22;6128;59.340;18.040;2023-07-13T11:36:39;24.00;91.50
12130;DHT22;6128;59.340;18.040;2023-07-13T11:39:17;23.90;91.60
12130;DHT22;6128;59.340;18.040;2023-07-13T11:41:50;23.80;91.70
12130;DHT22;6128;59.340;18.040;2023-07-13T11:44:20;24.00;91.70
12130;DHT22;6128;59.340;18.040;2023-07-13T11:46:49;24.10;91.70
12130;DHT22;6128;59.340;18.040;2023-07-13T11:49:18;23.90;91.90
12130;DHT22;6128;59.340;18.040;2023-07-13T11:51:47;24.10;92.00
12130;DHT22;6128;59.340;18.040;2023-07-13T11:54:24;24.00;92.10
12130;DHT22;6128;59.340;18.040;2023-07-13T11:56:52;23.90;92.10
12130;DHT22;6128;59.340;18.040;2023-07-13T11:59:19;23.80;92.20
12130;DHT22;6128;59.340;18.040;2023-07-13T12:01:50;23.70;92.20
12130;DHT22;6128;59.340;18.040;2023-07-13T12:04:22;23.80;92.20
12130;DHT22;6128;59.340;18.040;2023-07-13T12:07:03;23.90;92.30
12130;DHT22;6128;59.340;18.040;2023-07-13T12:09:30;24.00;92.20
12130;DHT22;6128;59.340;18.040;2023-07-13T12:11:58;24.10;92.30
12130;DHT22;6128;59.340;18.040;2023-07-13T12:14:27;24.30;92.30
12130;DHT22;6128;59.340;18.040;2023-07-13T12:16:55;24.30;92.40
12130;DHT22;6128;59.340;18.040;2023-07-13T12:19:24;24.40;92.40
12130;DHT22;6128;59.340;18.040;2023-07-13T12:21:54;24.60;92.40
12130;DHT22;6128;59.340;18.040;2023-07-13T12:24:24;24.50;92.50
12130;DHT22;6128;59.340;18.040;2023-07-13T12:26:53;24.60;92.50
12130;DHT22;6128;59.340;18.040;2023-07-13T12:29:21;24.60;92.60
12130;DHT22;6128;59.340;18.040;2023-07-13T12:31:50;24.60;92.50
12130;DHT22;6128;59.340;18.040;2023-07-13T12:34:19;24.80;92.50
12130;DHT22;6128;59.340;18.040;2023-07-13T12:36:48;24.90;92.40
12130;DHT22;6128;59.340;18.040;2023-07-13T12:39:19;24.90;92.40
12130;DHT22;6128;59.340;18.040;2023-07-13T12:41:49;24.90;92.30
12130;DHT22;6128;59.340;18.040;2023-07-13T12:44:18;25.10;92.30
12130;DHT22;6128;59.340;18.040;2023-07-13T12:46:57;25.20;92.30
12130;DHT22;6128;59.340;18.040;2023-07-13T12:49:28;25.20;92.30
12130;DHT22;6128;59.340;18.040;2023-07-13T12:51:59;25.30;92.20
12130;DHT22;6128;59.340;18.040;2023-07-13T12:54:28;25.30;92.20
12130;DHT22;6128;59.340;18.040;2023-07-13T12:56:58;25.30;92.20
12130;DHT22;6128;59.340;18.040;2023-07-13T12:59:31;25.20;92.00
12130;DHT22;6128;59.340;18.040;2023-07-13T13:02:02;25.00;91.90
12130;DHT22;6128;59.340;18.040;2023-07-13T13:04:44;24.80;91.80
12130;DHT22;6128;59.340;18.040;2023-07-13T13:07:12;24.70;91.70
12130;DHT22;6128;59.340;18.040;2023-07-13T13:09:39;24.70;91.70
12130;DHT22;6128;59.340;18.040;2023-07-13T13:12:08;24.80;91.60
12130;DHT22;6128;59.340;18.040;2023-07-13T13:14:36;24.90;91.70
12130;DHT22;6128;59.340;18.040;2023-07-13T13:17:15;24.80;91.70
12130;DHT22;6128;59.340;18.040;2023-07-13T13:19:45;24.70;91.60
12130;DHT22;6128;59.340;18.040;2023-07-13T13:22:12;24.60;91.50
12130;DHT22;6128;59.340;18.040;2023-07-13T13:24:40;24.70;91.40
12130;DHT22;6128;59.340;18.040;2023-07-13T13:27:14;24.80;91.40
12130;DHT22;6128;59.340;18.040;2023-07-13T13:29:42;25.10;91.30
12130;DHT22;6128;59.340;18.040;2023-07-13T13:32:12;25.00;91.20
12130;DHT22;6128;59.340;18.040;2023-07-13T13:34:39;25.10;91.10
12130;DHT22;6128;59.340;18.040;2023-07-13T13:37:16;25.10;91.00
12130;DHT22;6128;59.340;18.040;2023-07-13T13:39:45;25.00;90.90
12130;DHT22;6128;59.340;18.040;2023-07-13T13:42:14;24.90;90.70
12130;DHT22;6128;59.340;18.040;2023-07-13T13:44:41;24.90;90.70
12130;DHT22;6128;59.340;18.040;2023-07-13T13:47:21;25.00;90.60
12130;DHT22;6128;59.340;18.040;2023-07-13T13:49:52;24.90;90.50
12130;DHT22;6128;59.340;18.040;2023-07-13T13:52:19;24.80;90.40
12130;DHT22;6128;59.340;18.040;2023-07-13T13:54:46;24.60;90.40
12130;DHT22;6128;59.340;18.040;2023-07-13T13:57:14;24.40;90.40
12130;DHT22;6128;59.340;18.040;2023-07-13T13:59:42;24.40;90.40
12130;DHT22;6128;59.340;18.040;2023-07-13T14:02:25;24.20;90.40
12130;DHT22;6128;59.340;18.040;2023-07-13T14:04:56;24.20;90.40
12130;DHT22;6128;59.340;18.040;2023-07-13T14:07:25;24.40;90.50
12130;DHT22;6128;59.340;18.040;2023-07-13T14:09:52;24.50;90.50
12130;DHT22;6128;59.340;18.040;2023-07-13T14:12:21;24.60;90.50
12130;DHT22;6128;59.340;18.040;2023-07-13T14:14:50;24.50;90.50
12130;DHT22;6128;59.340;18.040;2023-07-13T14:17:20;24.50;90.50
12130;DHT22;6128;59.340;18.040;2023-07-13T14:19:49;24.60;90.50
12130;DHT22;6128;59.340;18.040;2023-07-13T14:22:22;24.80;90.50
12130;DHT22;6128;59.340;18.040;2023-07-13T14:24:50;24.80;90.50
12130;DHT22;6128;59.340;18.040;2023-07-13T14:27:17;24.90;90.40
12130;DHT22;6128;59.340;18.040;2023-07-13T14:29:45;24.90;90.40
12130;DHT22;6128;59.340;18.040;2023-07-13T14:32:13;24.90;90.20
12130;DHT22;6128;59.340;18.040;2023-07-13T14:34:40;24.90;90.10
12130;DHT22;6128;59.340;18.040;2023-07-13T14:37:12;25.00;90.10
12130;DHT22;6128;59.340;18.040;2023-07-13T14:39:40;25.00;90.00
12130;DHT22;6128;59.340;18.040;2023-07-13T14:42:10;25.00;90.00
12130;DHT22;6128;59.340;18.040;2023-07-13T14:44:38;25.00;90.00
12130;DHT22;6128;59.340;18.040;2023-07-13T14:47:07;24.90;90.10
12130;DHT22;6128;59.340;18.040;2023-07-13T14:49:37;24.90;90.20
12130;DHT22;6128;59.340;18.040;2023-07-13T14:52:11;25.00;90.20
12130;DHT22;6128;59.340;18.040;2023-07-13T14:54:39;25.00;90.20
12130;DHT22;6128;59.340;18.040;2023-07-13T14:57:10;24.90;90.30
12130;DHT22;6128;59.340;18.040;2023-07-13T14:59:37;24.80;90.40
12130;DHT22;6128;59.340;18.040;2023-07-13T15:02:16;24.80;90.50
12130;DHT22;6128;59.340;18.040;2023-07-13T15:04:45;24.70;90.60
12130;DHT22;6128;59.340;18.040;2023-07-13T15:07:12;24.50;90.70
12130;DHT22;6128;59.340;18.040;2023-07-13T15:09:41;24.20;90.90
12130;DHT22;6128;59.340;18.040;2023-07-13T15:12:09;24.00;91.10
12130;DHT22;6128;59.340;18.040;2023-07-13T15:14:36;23.90;91.30
12130;DHT22;6128;59.340;18.040;2023-07-13T15:17:04;23.70;91.50
12130;DHT22;6128;59.340;18.040;2023-07-13T15:19:33;23.40;91.70
12130;DHT22;6128;59.340;18.040;2023-07-13T15:22:01;23.30;91.90
12130;DHT22;6128;59.340;18.040;2023-07-13T15:24:29;23.50;92.10
12130;DHT22;6128;59.340;18.040;2023-07-13T15:26:56;23.70;92.30
12130;DHT22;6128;59.340;18.040;2023-07-13T15:29:23;23.80;92.50
12130;DHT22;6128;59.340;18.040;2023-07-13T15:31:50;24.00;92.60
12130;DHT22;6128;59.340;18.040;2023-07-13T15:34:22;24.00;92.70
12130;DHT22;6128;59.340;18.040;2023-07-13T15:36:53;24.10;92.80
12130;DHT22;6128;59.340;18.040;2023-07-13T15:39:20;24.10;92.80
12130;DHT22;6128;59.340;18.040;2023-07-13T15:41:48;24.00;92.90
12130;DHT22;6128;59.340;18.040;2023-07-13T15:44:33;23.70;92.90